createdAt,value
2017-08-22T00:01:54.391Z,98981.61
2017-08-22T00:04:21.853Z,98976.07
2017-08-22T00:06:49.297Z,98970.26
2017-08-22T00:09:16.756Z,98975.88
2017-08-22T00:11:44.210Z,98974.59
2017-08-22T00:14:11.653Z,98974.38
2017-08-22T00:16:39.128Z,98975.19
2017-08-22T00:19:06.578Z,98973.08
2017-08-22T00:21:34.051Z,98982.88
2017-08-22T00:24:01.517Z,98978.04
2017-08-22T00:26:28.986Z,98979.85
2017-08-22T00:28:56.429Z,98975.03
2017-08-22T00:31:23.898Z,98976.28
2017-08-22T00:33:51.356Z,98967.55
2017-08-22T00:36:18.801Z,98974.33
2017-08-22T00:38:46.274Z,98977.03
2017-08-22T00:41:13.728Z,98973.98
2017-08-22T00:43:41.200Z,98972.16
2017-08-22T00:46:08.645Z,98967.52
2017-08-22T00:48:36.131Z,98964.05
2017-08-22T00:51:03.607Z,98973.59
2017-08-22T00:53:31.062Z,98978.19
2017-08-22T00:55:58.529Z,98978.66
2017-08-22T00:58:26.020Z,98969.90
2017-08-22T01:00:53.470Z,98973.58
2017-08-22T01:03:20.948Z,98978.75
2017-08-22T01:05:48.413Z,98980.47
2017-08-22T01:08:15.891Z,98979.41
2017-08-22T01:10:43.345Z,98983.45
2017-08-22T01:13:10.789Z,98980.76
2017-08-22T01:15:38.255Z,98982.62
2017-08-22T01:18:05.700Z,98985.85
2017-08-22T01:20:33.183Z,98982.50
2017-08-22T01:23:00.653Z,98982.80
2017-08-22T01:25:28.132Z,98978.04
2017-08-22T01:27:55.581Z,98984.47
2017-08-22T01:30:23.033Z,98984.06
2017-08-22T01:32:50.525Z,98984.40
2017-08-22T01:35:17.974Z,98984.44
2017-08-22T01:37:45.431Z,98985.52
2017-08-22T01:40:12.917Z,98987.45
2017-08-22T01:42:40.361Z,98985.29
2017-08-22T01:45:07.833Z,98988.88
2017-08-22T01:47:35.300Z,98985.19
2017-08-22T01:50:02.746Z,98989.72
2017-08-22T01:52:30.219Z,98997.73
2017-08-22T01:54:57.669Z,98989.59
2017-08-22T01:57:25.138Z,98994.25
2017-08-22T01:59:52.588Z,98996.78
2017-08-22T02:02:20.053Z,98998.78
2017-08-22T02:04:47.514Z,98996.70
2017-08-22T02:07:14.981Z,99000.25
2017-08-22T02:09:42.423Z,98995.40
2017-08-22T02:12:09.870Z,98996.88
2017-08-22T02:14:37.358Z,98992.39
2017-08-22T02:17:04.824Z,98985.88
2017-08-22T02:19:32.301Z,98986.82
2017-08-22T02:21:59.769Z,98988.70
2017-08-22T02:24:27.237Z,98987.19
2017-08-22T02:26:54.689Z,98984.11
2017-08-22T02:29:22.165Z,98984.80
2017-08-22T02:31:49.652Z,98984.47
2017-08-22T02:34:17.112Z,98981.23
2017-08-22T02:36:44.573Z,98982.06
2017-08-22T02:39:12.045Z,98977.36
2017-08-22T02:41:39.502Z,98979.75
2017-08-22T02:44:06.982Z,98980.33
2017-08-22T02:46:34.459Z,98981.39
2017-08-22T02:49:01.905Z,98980.64
2017-08-22T02:51:29.394Z,98973.57
2017-08-22T02:53:56.851Z,98969.34
2017-08-22T02:56:24.329Z,98980.77
2017-08-22T02:58:51.780Z,98980.34
2017-08-22T03:01:19.257Z,98975.62
2017-08-22T03:03:46.712Z,98977.16
2017-08-22T03:06:14.193Z,98979.03
2017-08-22T03:08:41.657Z,98976.06
2017-08-22T03:11:09.120Z,98969.15
2017-08-22T03:13:36.572Z,98966.55
2017-08-22T03:16:04.016Z,98970.96
2017-08-22T03:18:31.494Z,98971.79
2017-08-22T03:20:58.967Z,98977.25
2017-08-22T03:23:26.429Z,98975.19
2017-08-22T03:25:53.913Z,98977.81
2017-08-22T03:28:21.361Z,98979.05
2017-08-22T03:30:48.805Z,98980.62
2017-08-22T03:33:16.293Z,98978.53
2017-08-22T03:35:43.746Z,98985.03
2017-08-22T03:38:11.200Z,98989.66
2017-08-22T03:40:38.672Z,98992.69
2017-08-22T03:43:06.129Z,98991.20
2017-08-22T03:45:33.610Z,98992.45
2017-08-22T03:48:01.068Z,99001.04
2017-08-22T03:50:28.541Z,98999.72
2017-08-22T03:52:55.998Z,98998.59
2017-08-22T03:55:23.469Z,98998.78
2017-08-22T03:57:50.941Z,99003.48
2017-08-22T04:00:18.421Z,99005.66
2017-08-22T04:02:45.873Z,99009.42
2017-08-22T04:05:13.346Z,99004.03
2017-08-22T04:07:40.822Z,99010.95
2017-08-22T04:10:08.296Z,99014.59
2017-08-22T04:12:35.740Z,99013.31
2017-08-22T04:15:03.208Z,99018.46
2017-08-22T04:17:30.669Z,99016.43
2017-08-22T04:19:58.146Z,99013.72
2017-08-22T04:22:25.597Z,99012.94
2017-08-22T04:24:53.047Z,99014.43
2017-08-22T04:27:20.511Z,99008.23
2017-08-22T04:29:47.954Z,99004.23
2017-08-22T04:32:15.445Z,99004.98
2017-08-22T04:34:42.880Z,99011.19
2017-08-22T04:39:47.161Z,99006.62
2017-08-22T04:42:14.618Z,99006.98
2017-08-22T04:44:42.089Z,99001.78
2017-08-22T04:47:09.537Z,99003.27
2017-08-22T04:49:36.977Z,98999.11
2017-08-22T04:52:04.449Z,98996.94
2017-08-22T04:54:32.301Z,98999.09
2017-08-22T04:56:59.748Z,99003.66
2017-08-22T04:59:27.217Z,99000.19
2017-08-22T05:01:54.689Z,99005.41
2017-08-22T05:04:22.134Z,99003.05
2017-08-22T05:06:49.609Z,99004.11
2017-08-22T05:09:17.060Z,99000.63
2017-08-22T05:11:44.515Z,99001.59
2017-08-22T05:14:11.985Z,98996.83
2017-08-22T05:16:39.432Z,99002.98
2017-08-22T05:19:06.905Z,99002.09
2017-08-22T05:21:34.360Z,99000.16
2017-08-22T05:24:01.830Z,99006.59
2017-08-22T05:26:29.302Z,99002.27
2017-08-22T05:28:56.801Z,99005.14
2017-08-22T05:31:24.257Z,99007.52
2017-08-22T05:33:51.735Z,99002.20
2017-08-22T05:36:19.189Z,98995.83
2017-08-22T05:38:46.656Z,99004.01
2017-08-22T05:41:14.105Z,99006.10
2017-08-22T05:43:41.547Z,99011.39
2017-08-22T05:46:09.025Z,99011.19
2017-08-22T05:48:36.482Z,99010.48
2017-08-22T05:51:03.957Z,99008.92
2017-08-22T05:53:31.401Z,99003.99
2017-08-22T05:55:58.873Z,99004.34
2017-08-22T05:58:26.330Z,99002.06
2017-08-22T06:00:53.810Z,99000.24
2017-08-22T06:03:21.303Z,99001.95
2017-08-22T06:05:48.758Z,98995.11
2017-08-22T06:08:16.241Z,99005.39
2017-08-22T06:10:43.696Z,99004.66
2017-08-22T06:13:11.153Z,99005.36
2017-08-22T06:15:38.641Z,99006.80
2017-08-22T06:18:06.103Z,99009.13
2017-08-22T06:20:33.589Z,99001.61
2017-08-22T06:23:01.066Z,99007.75
2017-08-22T06:25:28.522Z,99002.17
2017-08-22T06:27:55.993Z,98998.67
2017-08-22T06:30:23.443Z,98994.22
2017-08-22T06:32:50.929Z,98993.05
2017-08-22T06:35:18.381Z,98985.80
2017-08-22T06:37:45.883Z,98982.92
2017-08-22T06:40:13.339Z,98973.70
2017-08-22T06:42:40.813Z,98974.47
2017-08-22T06:45:08.294Z,98964.98
2017-08-22T06:47:36.044Z,98964.26
2017-08-22T06:50:03.518Z,98963.80
2017-08-22T06:52:30.984Z,98967.69
2017-08-22T06:54:58.437Z,98967.93
2017-08-22T06:57:25.889Z,98971.35
2017-08-22T06:59:53.361Z,98977.06
2017-08-22T07:02:20.805Z,98981.31
2017-08-22T07:04:48.262Z,98980.55
2017-08-22T07:07:15.738Z,98970.59
2017-08-22T07:09:43.199Z,98973.79
2017-08-22T07:12:10.658Z,98970.88
2017-08-22T07:14:38.153Z,98969.80
2017-08-22T07:17:05.610Z,98970.34
2017-08-22T07:19:33.088Z,98964.97
2017-08-22T07:22:00.541Z,98968.03
2017-08-22T07:24:28.001Z,98970.33
2017-08-22T07:26:55.472Z,98966.59
2017-08-22T07:29:22.925Z,98965.70
2017-08-22T07:31:50.399Z,98956.91
2017-08-22T07:34:17.845Z,98956.53
2017-08-22T07:36:45.467Z,98960.63
2017-08-22T07:39:12.914Z,98964.26
2017-08-22T07:41:40.381Z,98961.48
2017-08-22T07:44:07.849Z,98957.26
2017-08-22T07:46:35.333Z,98961.50
2017-08-22T07:49:02.804Z,98959.17
2017-08-22T07:51:30.286Z,98962.09
2017-08-22T07:53:57.733Z,98967.30
2017-08-22T07:56:25.180Z,98959.64
2017-08-22T07:58:52.649Z,98963.03
2017-08-22T08:01:20.099Z,98962.63
2017-08-22T08:03:47.578Z,98952.87
2017-08-22T08:06:15.050Z,98956.70
2017-08-22T08:08:42.553Z,98955.09
2017-08-22T08:11:10.000Z,98949.64
2017-08-22T08:13:37.474Z,98947.89
2017-08-22T08:16:04.941Z,98941.45
2017-08-22T08:18:32.414Z,98945.72
2017-08-22T08:20:59.861Z,98935.70
2017-08-22T08:23:27.336Z,98932.27
2017-08-22T08:25:54.782Z,98926.73
2017-08-22T08:28:22.254Z,98927.14
2017-08-22T08:30:49.708Z,98930.16
2017-08-22T08:33:17.176Z,98931.11
2017-08-22T08:35:44.626Z,98930.45
2017-08-22T08:38:12.082Z,98927.90
2017-08-22T08:40:39.558Z,98923.37
2017-08-22T08:43:07.009Z,98930.14
2017-08-22T08:45:34.473Z,98927.63
2017-08-22T08:48:01.927Z,98922.58
2017-08-22T08:50:29.393Z,98923.18
2017-08-22T08:52:56.865Z,98923.84
2017-08-22T08:55:24.308Z,98922.66
2017-08-22T08:57:51.766Z,98919.77
2017-08-22T09:00:19.236Z,98912.56
2017-08-22T09:02:46.691Z,98916.10
2017-08-22T09:05:14.164Z,98919.91
2017-08-22T09:07:41.613Z,98914.59
2017-08-22T09:10:09.083Z,98915.24
2017-08-22T09:12:36.521Z,98905.91
2017-08-22T09:15:04.165Z,98903.20
2017-08-22T09:17:31.626Z,98897.30
2017-08-22T09:19:59.094Z,98892.88
2017-08-22T09:22:26.569Z,98888.73
2017-08-22T09:24:54.039Z,98887.62
2017-08-22T09:27:21.496Z,98882.52
2017-08-22T09:29:48.961Z,98883.80
2017-08-22T09:32:16.421Z,98879.44
2017-08-22T09:34:43.893Z,98883.56
2017-08-22T09:37:11.357Z,98881.30
2017-08-22T09:39:38.835Z,98875.88
2017-08-22T09:42:06.311Z,98870.92
2017-08-22T09:44:33.775Z,98861.04
2017-08-22T09:47:01.258Z,98861.35
2017-08-22T09:49:28.728Z,98859.70
2017-08-22T09:51:56.169Z,98855.13
2017-08-22T09:54:23.637Z,98859.05
2017-08-22T09:56:51.085Z,98850.13
2017-08-22T09:59:18.553Z,98850.34
2017-08-22T10:01:45.997Z,98846.79
2017-08-22T10:04:13.447Z,98843.14
2017-08-22T10:06:40.914Z,98837.63
2017-08-22T10:09:08.356Z,98836.27
2017-08-22T10:11:35.800Z,98832.70
2017-08-22T10:14:03.277Z,98839.66
2017-08-22T10:16:30.746Z,98831.52
2017-08-22T10:18:58.815Z,98818.35
2017-08-22T10:21:26.285Z,98820.80
2017-08-22T10:23:53.761Z,98812.06
2017-08-22T10:26:21.205Z,98812.72
2017-08-22T10:28:48.650Z,98802.91
2017-08-22T10:31:16.118Z,98798.86
2017-08-22T10:33:43.566Z,98794.59
2017-08-22T10:36:11.045Z,98796.75
2017-08-22T10:38:38.493Z,98793.31
2017-08-22T10:41:05.946Z,98788.00
2017-08-22T10:43:33.400Z,98786.22
2017-08-22T10:46:00.851Z,98781.64
2017-08-22T10:48:28.337Z,98773.75
2017-08-22T10:50:55.792Z,98773.56
2017-08-22T10:53:23.247Z,98775.48
2017-08-22T10:55:50.717Z,98774.14
2017-08-22T10:58:18.169Z,98762.19
2017-08-22T11:00:45.636Z,98765.52
2017-08-22T11:03:13.089Z,98758.17
2017-08-22T11:05:40.570Z,98751.85
2017-08-22T11:08:08.017Z,98749.36
2017-08-22T11:10:35.473Z,98754.66
2017-08-22T11:13:02.950Z,98741.43
2017-08-22T11:15:30.412Z,98747.41
2017-08-22T11:17:57.881Z,98736.56
2017-08-22T11:20:25.327Z,98740.55
2017-08-22T11:22:52.773Z,98734.98
2017-08-22T11:25:20.239Z,98733.99
2017-08-22T11:27:47.693Z,98736.61
2017-08-22T11:30:15.164Z,98726.81
2017-08-22T11:32:42.615Z,98730.00
2017-08-22T11:35:10.086Z,98727.81
2017-08-22T11:37:37.532Z,98719.50
2017-08-22T11:40:05.006Z,98717.88
2017-08-22T11:42:32.459Z,98722.77
2017-08-22T11:44:59.940Z,98715.39
2017-08-22T11:47:27.378Z,98713.53
2017-08-22T11:49:54.823Z,98709.80
2017-08-22T11:52:22.292Z,98716.67
2017-08-22T11:54:49.748Z,98723.97
2017-08-22T11:57:17.224Z,98713.26
2017-08-22T11:59:44.694Z,98706.43
2017-08-22T12:02:12.137Z,98704.57
2017-08-22T12:04:39.584Z,98700.81
2017-08-22T12:07:07.050Z,98700.94
2017-08-22T12:09:34.520Z,98705.39
2017-08-22T12:12:01.975Z,98697.01
2017-08-22T12:14:29.427Z,98699.30
2017-08-22T12:16:56.929Z,98707.29
2017-08-22T12:19:24.392Z,98696.20
2017-08-22T12:21:51.873Z,98692.52
2017-08-22T12:24:19.322Z,98699.77
2017-08-22T12:26:46.961Z,98693.53
2017-08-22T12:29:14.434Z,98689.03
2017-08-22T12:31:41.888Z,98683.56
2017-08-22T12:34:09.342Z,98681.89
2017-08-22T12:36:36.814Z,98675.54
2017-08-22T12:39:04.297Z,98669.88
2017-08-22T12:41:31.749Z,98674.27
2017-08-22T12:43:59.199Z,98663.58
2017-08-22T12:46:26.664Z,98656.94
2017-08-22T12:48:54.105Z,98659.34
2017-08-22T12:51:21.590Z,98646.89
2017-08-22T12:53:49.041Z,98653.66
2017-08-22T12:56:16.485Z,98652.03
2017-08-22T12:58:43.945Z,98665.28
2017-08-22T13:01:11.427Z,98651.75
2017-08-22T13:03:38.897Z,98637.83
2017-08-22T13:06:06.356Z,98640.11
2017-08-22T13:08:33.829Z,98629.62
2017-08-22T13:11:01.274Z,98626.02
2017-08-22T13:13:28.815Z,98631.18
2017-08-22T13:15:56.261Z,98625.18
2017-08-22T13:18:23.729Z,98629.09
2017-08-22T13:20:51.664Z,98636.56
2017-08-22T13:23:19.109Z,98628.61
2017-08-22T13:25:46.583Z,98621.16
2017-08-22T13:28:14.029Z,98616.27
2017-08-22T13:30:41.487Z,98627.59
2017-08-22T13:33:09.014Z,98623.77
2017-08-22T13:38:13.160Z,98623.02
2017-08-22T13:40:40.608Z,98618.21
2017-08-22T13:43:08.088Z,98606.41
2017-08-22T13:45:35.533Z,98608.70
2017-08-22T13:48:02.998Z,98609.08
2017-08-22T13:50:30.501Z,98602.61
2017-08-22T13:52:57.940Z,98605.20
2017-08-22T13:55:25.406Z,98596.98
2017-08-22T13:57:52.880Z,98598.23
2017-08-22T14:00:20.353Z,98590.44
2017-08-22T14:02:47.801Z,98584.46
2017-08-22T14:05:15.272Z,98585.20
2017-08-22T14:07:42.733Z,98585.22
2017-08-22T14:10:10.208Z,98590.32
2017-08-22T14:12:37.775Z,98580.61
2017-08-22T14:15:05.241Z,98576.53
2017-08-22T14:17:32.718Z,98588.22
2017-08-22T14:20:00.166Z,98579.58
2017-08-22T14:22:27.631Z,98578.00
2017-08-22T14:24:55.092Z,98578.45
2017-08-22T14:27:22.538Z,98585.31
2017-08-22T14:29:50.010Z,98581.20
2017-08-22T14:32:17.455Z,98575.97
2017-08-22T14:34:44.929Z,98578.78
2017-08-22T14:37:12.400Z,98574.61
2017-08-22T14:39:39.843Z,98573.91
2017-08-22T14:42:07.300Z,98582.36
2017-08-22T14:44:34.795Z,98571.64
2017-08-22T14:47:02.262Z,98560.02
2017-08-22T14:49:29.702Z,98561.81
2017-08-22T14:51:57.169Z,98573.61
2017-08-22T14:54:24.618Z,98565.70
2017-08-22T14:56:52.073Z,98560.93
2017-08-22T14:59:19.541Z,98563.31
2017-08-22T15:01:46.985Z,98558.92
2017-08-22T15:04:14.453Z,98559.03
2017-08-22T15:06:41.904Z,98559.03
2017-08-22T15:09:09.369Z,98564.21
2017-08-22T15:11:36.821Z,98560.20
2017-08-22T15:14:04.286Z,98565.63
2017-08-22T15:16:31.738Z,98550.88
2017-08-22T15:18:59.181Z,98556.32
2017-08-22T15:21:26.649Z,98552.92
2017-08-22T15:23:54.101Z,98554.86
2017-08-22T15:26:21.590Z,98564.20
2017-08-22T15:28:49.032Z,98555.86
2017-08-22T15:31:16.505Z,98554.86
2017-08-22T15:33:43.966Z,98554.91
2017-08-22T15:36:11.421Z,98565.45
2017-08-22T15:38:38.868Z,98562.83
2017-08-22T15:41:06.333Z,98553.31
2017-08-22T15:43:33.807Z,98553.42
2017-08-22T15:46:01.263Z,98551.77
2017-08-22T15:48:28.735Z,98548.97
2017-08-22T15:50:56.185Z,98547.19
2017-08-22T15:53:23.650Z,98542.97
2017-08-22T15:55:51.098Z,98547.20
2017-08-22T15:58:18.569Z,98540.84
2017-08-22T16:00:46.037Z,98540.95
2017-08-22T16:03:13.485Z,98541.47
2017-08-22T16:05:40.931Z,98539.23
2017-08-22T16:08:08.407Z,98545.25
2017-08-22T16:10:35.853Z,98544.28
2017-08-22T16:13:03.316Z,98546.59
2017-08-22T16:15:30.757Z,98544.77
2017-08-22T16:17:58.209Z,98543.44
2017-08-22T16:20:25.677Z,98541.77
2017-08-22T16:22:53.115Z,98541.41
2017-08-22T16:25:20.581Z,98538.64
2017-08-22T16:27:48.025Z,98538.75
2017-08-22T16:30:15.495Z,98538.52
2017-08-22T16:32:42.958Z,98536.13
2017-08-22T16:35:10.409Z,98542.37
2017-08-22T16:37:37.880Z,98538.86
2017-08-22T16:40:05.318Z,98543.05
2017-08-22T16:42:32.794Z,98538.16
2017-08-22T16:45:01.006Z,98536.92
2017-08-22T16:47:28.464Z,98540.34
2017-08-22T16:49:55.958Z,98548.23
2017-08-22T16:52:23.409Z,98535.94
2017-08-22T16:54:50.884Z,98536.00
2017-08-22T16:57:18.334Z,98542.06
2017-08-22T16:59:45.804Z,98542.59
2017-08-22T17:02:13.281Z,98544.14
2017-08-22T17:04:40.724Z,98545.89
2017-08-22T17:07:08.167Z,98556.90
2017-08-22T17:09:35.641Z,98547.28
2017-08-22T17:12:03.081Z,98546.92
2017-08-22T17:14:30.544Z,98552.03
2017-08-22T17:16:58.061Z,98548.50
2017-08-22T17:19:25.506Z,98550.61
2017-08-22T17:21:52.948Z,98549.24
2017-08-22T17:24:20.412Z,98548.42
2017-08-22T17:26:47.856Z,98551.05
2017-08-22T17:29:15.327Z,98548.50
2017-08-22T17:31:43.695Z,98549.14
2017-08-22T17:34:11.141Z,98550.81
2017-08-22T17:36:38.606Z,98548.89
2017-08-22T17:39:06.047Z,98549.69
2017-08-22T17:41:33.521Z,98556.11
2017-08-22T17:44:00.970Z,98554.73
2017-08-22T17:46:28.438Z,98556.25
2017-08-22T17:48:55.958Z,98556.36
2017-08-22T17:51:23.436Z,98554.31
2017-08-22T17:53:50.904Z,98557.47
2017-08-22T17:56:18.345Z,98561.94
2017-08-22T17:58:45.825Z,98568.61
2017-08-22T18:01:13.266Z,98565.32
2017-08-22T18:03:40.729Z,98566.23
2017-08-22T18:06:08.181Z,98566.91
2017-08-22T18:08:35.645Z,98565.19
2017-08-22T18:11:03.116Z,98562.03
2017-08-22T18:13:30.562Z,98565.27
2017-08-22T18:15:58.033Z,98565.23
2017-08-22T18:18:25.506Z,98570.20
2017-08-22T18:20:52.949Z,98568.23
2017-08-22T18:23:20.413Z,98571.05
2017-08-22T18:25:47.881Z,98571.60
2017-08-22T18:28:15.324Z,98572.88
2017-08-22T18:30:42.797Z,98577.62
2017-08-22T18:33:10.249Z,98580.02
2017-08-22T18:35:37.708Z,98584.58
2017-08-22T18:38:05.156Z,98589.27
2017-08-22T18:40:32.601Z,98586.96
2017-08-22T18:43:00.075Z,98589.56
2017-08-22T18:45:27.539Z,98594.30
2017-08-22T18:47:55.001Z,98605.58
2017-08-22T18:50:22.457Z,98605.21
2017-08-22T18:52:49.900Z,98606.05
2017-08-22T18:55:17.381Z,98612.39
2017-08-22T18:57:44.845Z,98616.04
2017-08-22T19:00:12.298Z,98622.59
2017-08-22T19:02:39.734Z,98621.30
2017-08-22T19:05:07.215Z,98626.06
2017-08-22T19:07:34.662Z,98630.69
2017-08-22T19:10:02.111Z,98627.72
2017-08-22T19:12:29.594Z,98630.31
2017-08-22T19:14:57.066Z,98623.73
2017-08-22T19:17:24.517Z,98618.69
2017-08-22T19:19:51.981Z,98616.31
2017-08-22T19:22:19.421Z,98618.77
2017-08-22T19:24:46.868Z,98617.97
2017-08-22T19:27:14.338Z,98613.62
2017-08-22T19:29:41.825Z,98617.77
2017-08-22T19:32:09.276Z,98618.41
2017-08-22T19:34:36.730Z,98617.02
2017-08-22T19:37:04.201Z,98617.17
2017-08-22T19:39:31.825Z,98616.11
2017-08-22T19:41:59.311Z,98621.79
2017-08-22T19:44:26.972Z,98618.63
2017-08-22T19:46:54.884Z,98611.66
2017-08-22T19:49:22.357Z,98612.84
2017-08-22T19:51:50.127Z,98611.08
2017-08-22T19:54:17.664Z,98613.14
2017-08-22T19:56:45.416Z,98609.53
2017-08-22T19:59:12.893Z,98610.95
2017-08-22T20:01:40.900Z,98611.44
2017-08-22T20:04:08.363Z,98608.45
2017-08-22T20:06:35.888Z,98609.41
2017-08-22T20:09:03.342Z,98610.71
2017-08-22T20:11:30.814Z,98612.00
2017-08-22T20:13:58.253Z,98612.89
2017-08-22T20:16:25.730Z,98609.30
2017-08-22T20:18:53.212Z,98609.89
2017-08-22T20:21:20.667Z,98610.59
2017-08-22T20:23:48.145Z,98613.25
2017-08-22T20:26:15.600Z,98609.81
2017-08-22T20:28:43.070Z,98607.88
2017-08-22T20:31:10.562Z,98610.09
2017-08-22T20:33:38.011Z,98605.78
2017-08-22T20:36:05.488Z,98613.77
2017-08-22T20:38:32.929Z,98620.06
2017-08-22T20:41:00.380Z,98620.56
2017-08-22T20:43:27.855Z,98621.63
2017-08-22T20:45:55.304Z,98619.88
2017-08-22T20:48:22.769Z,98621.67
2017-08-22T20:50:50.210Z,98625.02
2017-08-22T20:53:17.671Z,98623.14
2017-08-22T20:55:45.121Z,98622.81
2017-08-22T20:58:12.593Z,98622.12
2017-08-22T21:00:40.041Z,98616.81
2017-08-22T21:03:07.509Z,98617.65
2017-08-22T21:05:34.972Z,98615.91
2017-08-22T21:08:02.430Z,98619.45
2017-08-22T21:10:29.909Z,98619.19
2017-08-22T21:12:57.344Z,98618.30
2017-08-22T21:15:24.788Z,98619.89
2017-08-22T21:17:52.271Z,98617.31
2017-08-22T21:20:19.726Z,98612.88
2017-08-22T21:22:47.174Z,98616.04
2017-08-22T21:25:14.641Z,98609.50
2017-08-22T21:27:42.088Z,98610.42
2017-08-22T21:30:09.641Z,98612.05
2017-08-22T21:32:37.088Z,98605.29
2017-08-22T21:35:04.537Z,98609.45
2017-08-22T21:37:32.013Z,98605.86
2017-08-22T21:39:59.453Z,98605.20
2017-08-22T21:42:26.931Z,98610.98
2017-08-22T21:44:54.384Z,98609.46
2017-08-22T21:47:21.838Z,98607.52
2017-08-22T21:49:49.312Z,98613.37
2017-08-22T21:52:16.781Z,98612.80
2017-08-22T21:54:44.233Z,98614.30
2017-08-22T21:57:11.680Z,98614.05
2017-08-22T21:59:39.148Z,98615.38
2017-08-22T22:02:06.593Z,98614.14
2017-08-22T22:04:34.060Z,98616.58
2017-08-22T22:07:01.517Z,98613.75
2017-08-22T22:09:28.997Z,98618.34
2017-08-22T22:11:56.468Z,98615.01
2017-08-22T22:14:23.933Z,98616.70
2017-08-22T22:16:51.381Z,98613.63
2017-08-22T22:19:18.835Z,98615.72
2017-08-22T22:21:46.293Z,98619.64
2017-08-22T22:24:13.760Z,98618.27
2017-08-22T22:26:41.216Z,98621.25
2017-08-22T22:29:08.689Z,98610.12
2017-08-22T22:31:36.134Z,98615.90
2017-08-22T22:34:03.578Z,98618.98
2017-08-22T22:36:31.048Z,98622.70
2017-08-22T22:38:58.529Z,98614.87
2017-08-22T22:41:25.977Z,98612.08
2017-08-22T22:43:53.424Z,98615.53
2017-08-22T22:46:20.893Z,98615.53
2017-08-22T22:48:48.342Z,98614.53
2017-08-22T22:51:15.815Z,98615.67
2017-08-22T22:53:43.286Z,98615.70
2017-08-22T22:56:10.740Z,98622.84
2017-08-22T22:58:38.188Z,98618.82
2017-08-22T23:01:05.656Z,98618.72
2017-08-22T23:03:33.100Z,98617.72
2017-08-22T23:06:00.586Z,98611.77
2017-08-22T23:08:28.029Z,98612.34
2017-08-22T23:10:55.491Z,98611.92
2017-08-22T23:13:22.981Z,98610.92
2017-08-22T23:15:50.492Z,98606.18
2017-08-22T23:18:17.950Z,98606.20
2017-08-22T23:20:45.416Z,98607.08
2017-08-22T23:23:12.859Z,98608.14
2017-08-22T23:25:40.333Z,98611.91
2017-08-22T23:28:07.787Z,98608.83
2017-08-22T23:30:35.239Z,98612.01
2017-08-22T23:33:02.720Z,98608.19
2017-08-22T23:35:30.174Z,98608.62
2017-08-22T23:37:57.641Z,98613.20
2017-08-22T23:40:25.084Z,98611.33
2017-08-22T23:42:58.073Z,98619.09
2017-08-22T23:45:25.545Z,98615.98
2017-08-22T23:47:53.021Z,98623.13
2017-08-22T23:50:20.463Z,98618.95
2017-08-22T23:52:47.912Z,98617.27
2017-08-22T23:55:15.389Z,98612.28
2017-08-22T23:57:42.841Z,98614.20
